createdAt,value
2019-01-28T00:00:45.822Z,84.68
2019-01-28T00:01:45.739Z,84.56
2019-01-28T00:02:45.545Z,84.52
2019-01-28T00:03:45.440Z,84.49
2019-01-28T00:04:45.839Z,84.44
2019-01-28T00:05:46.177Z,84.59
2019-01-28T00:06:45.577Z,84.59
2019-01-28T00:07:45.566Z,84.72
2019-01-28T00:08:45.687Z,84.72
2019-01-28T00:09:45.683Z,84.73
2019-01-28T00:10:45.583Z,84.67
2019-01-28T00:11:45.437Z,84.57
2019-01-28T00:12:45.575Z,84.67
2019-01-28T00:13:45.644Z,84.59
2019-01-28T00:14:45.581Z,84.44
2019-01-28T00:15:45.582Z,84.58
2019-01-28T00:16:45.444Z,84.56
2019-01-28T00:17:47.190Z,84.7
2019-01-28T00:18:45.570Z,84.61
2019-01-28T00:19:45.655Z,84.68
2019-01-28T00:20:45.539Z,84.6
2019-01-28T00:21:47.286Z,84.69
2019-01-28T00:22:45.462Z,84.79
2019-01-28T00:23:47.311Z,84.9
2019-01-28T00:24:45.496Z,84.9
2019-01-28T00:25:45.498Z,84.94
2019-01-28T00:26:45.704Z,84.98
2019-01-28T00:27:45.478Z,85.01
2019-01-28T00:28:45.240Z,85.08
2019-01-28T00:29:45.545Z,85.01
2019-01-28T00:30:45.663Z,85.14
2019-01-28T00:31:45.584Z,85.08
2019-01-28T00:32:45.844Z,85.04
2019-01-28T00:33:45.450Z,85.17
2019-01-28T00:34:45.597Z,85.17
2019-01-28T00:35:45.414Z,85.1
2019-01-28T00:36:45.631Z,85.16
2019-01-28T00:37:45.676Z,85.21
2019-01-28T00:38:45.497Z,85.37
2019-01-28T00:39:45.684Z,85.4
2019-01-28T00:40:45.708Z,85.36
2019-01-28T00:41:45.393Z,85.38
2019-01-28T00:42:45.784Z,85.38
2019-01-28T00:43:45.495Z,85.35
2019-01-28T00:44:45.419Z,85.4
2019-01-28T00:45:45.611Z,85.37
2019-01-28T00:46:45.371Z,85.31
2019-01-28T00:47:45.530Z,85.32
2019-01-28T00:48:45.460Z,85.36
2019-01-28T00:49:45.757Z,85.3
2019-01-28T00:50:45.498Z,85.32
2019-01-28T00:51:45.684Z,85.32
2019-01-28T00:52:45.444Z,85.2
2019-01-28T00:53:45.730Z,85.19
2019-01-28T00:54:45.487Z,85.14
2019-01-28T00:55:47.181Z,85.06
2019-01-28T00:56:45.397Z,85.06
2019-01-28T00:57:45.498Z,85.05
2019-01-28T00:58:45.617Z,85.08
2019-01-28T00:59:46.136Z,84.96
2019-01-28T01:00:45.373Z,85
2019-01-28T01:01:45.640Z,85.01
2019-01-28T01:02:45.445Z,84.9
2019-01-28T01:03:45.386Z,84.8
2019-01-28T01:04:45.392Z,84.76
2019-01-28T01:05:45.456Z,84.76
2019-01-28T01:06:45.511Z,84.73
2019-01-28T01:07:45.388Z,84.74
2019-01-28T01:08:45.788Z,84.84
2019-01-28T01:09:45.483Z,84.62
2019-01-28T01:10:45.380Z,84.45
2019-01-28T01:11:45.500Z,84.69
2019-01-28T01:12:45.422Z,84.55
2019-01-28T01:13:45.462Z,84.4
2019-01-28T01:14:45.424Z,84.28
2019-01-28T01:15:45.398Z,84.33
2019-01-28T01:16:45.417Z,84.21
2019-01-28T01:17:45.418Z,84.23
2019-01-28T01:18:45.484Z,83.86
2019-01-28T01:19:45.386Z,83.91
2019-01-28T01:20:45.382Z,83.73
2019-01-28T01:21:45.373Z,83.71
2019-01-28T01:22:45.490Z,83.5
2019-01-28T01:23:45.566Z,83.16
2019-01-28T01:24:45.454Z,83.29
2019-01-28T01:25:45.676Z,83.11
2019-01-28T01:26:47.151Z,83.14
2019-01-28T01:27:45.327Z,83.05
2019-01-28T01:28:47.135Z,82.92
2019-01-28T01:29:45.614Z,82.84
2019-01-28T01:30:45.587Z,82.76
2019-01-28T01:31:45.723Z,82.85
2019-01-28T01:32:45.462Z,82.83
2019-01-28T01:33:45.293Z,82.69
2019-01-28T01:34:45.283Z,82.78
2019-01-28T01:35:45.359Z,82.73
2019-01-28T01:36:45.592Z,82.66
2019-01-28T01:37:45.332Z,82.69
2019-01-28T01:38:45.333Z,82.82
2019-01-28T01:39:45.395Z,82.81
2019-01-28T01:40:45.806Z,82.63
2019-01-28T01:41:45.622Z,82.66
2019-01-28T01:42:45.527Z,82.5
2019-01-28T01:43:45.379Z,82.32
2019-01-28T01:44:45.444Z,82.54
2019-01-28T01:45:45.491Z,82.51
2019-01-28T01:46:45.277Z,82.38
2019-01-28T01:47:45.434Z,82.36
2019-01-28T01:48:45.394Z,82.38
2019-01-28T01:49:45.298Z,82.25
2019-01-28T01:50:46.302Z,82.26
2019-01-28T01:51:45.577Z,82.22
2019-01-28T01:52:45.400Z,82.04
2019-01-28T01:53:45.438Z,82.19
2019-01-28T01:54:45.590Z,82.11
2019-01-28T01:55:45.588Z,82.03
2019-01-28T01:56:47.099Z,82.1
2019-01-28T01:57:45.341Z,81.91
2019-01-28T01:58:45.378Z,82.11
2019-01-28T01:59:45.329Z,82
2019-01-28T02:00:45.738Z,81.82
2019-01-28T02:01:45.273Z,81.75
2019-01-28T02:02:45.535Z,81.77
2019-01-28T02:03:45.338Z,81.71
2019-01-28T02:04:45.476Z,81.88
2019-01-28T02:05:45.682Z,81.79
2019-01-28T02:06:45.882Z,81.85
2019-01-28T02:07:45.320Z,81.75
2019-01-28T02:08:45.229Z,81.78
2019-01-28T02:09:45.457Z,81.8
2019-01-28T02:10:45.445Z,81.81
2019-01-28T02:11:47.145Z,81.72
2019-01-28T02:12:45.614Z,81.75
2019-01-28T02:13:45.531Z,81.77
2019-01-28T02:14:47.065Z,81.68
2019-01-28T02:15:45.528Z,81.31
2019-01-28T02:16:45.227Z,81.56
2019-01-28T02:17:45.561Z,81.55
2019-01-28T02:18:45.241Z,81.51
2019-01-28T02:19:45.706Z,81.44
2019-01-28T02:20:45.441Z,81.6
2019-01-28T02:21:45.422Z,81.68
2019-01-28T02:22:45.678Z,81.66
2019-01-28T02:23:45.680Z,81.72
2019-01-28T02:24:45.802Z,81.5
2019-01-28T02:25:45.440Z,81.6
2019-01-28T02:26:45.359Z,81.53
2019-01-28T02:27:45.715Z,81.45
2019-01-28T02:28:45.239Z,81.28
2019-01-28T02:34:45.354Z,81.42
2019-01-28T02:35:45.343Z,81.25
2019-01-28T02:36:45.064Z,81.42
2019-01-28T02:37:45.001Z,81.52
2019-01-28T02:38:45.122Z,81.41
2019-01-28T02:39:45.563Z,81.4
2019-01-28T02:40:44.985Z,81.41
2019-01-28T02:41:45.846Z,81.36
2019-01-28T02:42:44.996Z,81.48
2019-01-28T02:43:45.018Z,81.24
2019-01-28T02:44:45.104Z,81.18
2019-01-28T02:45:45.108Z,81.06
2019-01-28T02:46:45.064Z,80.97
2019-01-28T02:47:45.045Z,81.01
2019-01-28T02:48:45.025Z,81.02
2019-01-28T02:49:45.556Z,81.26
2019-01-28T02:50:45.068Z,81.31
2019-01-28T02:51:45.162Z,81.3
2019-01-28T02:52:44.990Z,81.31
2019-01-28T02:53:45.052Z,81.2
2019-01-28T02:54:45.031Z,81.36
2019-01-28T02:55:45.050Z,81.08
2019-01-28T02:56:45.030Z,81.04
2019-01-28T02:57:45.080Z,81.25
2019-01-28T02:58:45.017Z,81.28
2019-01-28T02:59:45.063Z,81.34
2019-01-28T03:00:45.108Z,81.48
2019-01-28T03:01:44.990Z,81.42
2019-01-28T03:02:45.021Z,81.43
2019-01-28T03:03:44.953Z,81.37
2019-01-28T03:04:45.237Z,81.39
2019-01-28T03:05:44.931Z,81.53
2019-01-28T03:06:45.019Z,81.63
2019-01-28T03:07:46.608Z,81.63
2019-01-28T03:08:45.015Z,81.83
2019-01-28T03:09:45.057Z,81.64
2019-01-28T03:10:45.015Z,81.74
2019-01-28T03:11:44.903Z,81.88
2019-01-28T03:12:45.187Z,81.94
2019-01-28T03:13:44.979Z,82.08
2019-01-28T03:14:45.216Z,82.08
2019-01-28T03:15:44.947Z,82.24
2019-01-28T03:16:45.533Z,82.27
2019-01-28T03:17:45.770Z,82.39
2019-01-28T03:18:44.927Z,82.19
2019-01-28T03:19:45.166Z,82.18
2019-01-28T03:20:46.099Z,82.38
2019-01-28T03:21:45.340Z,82.39
2019-01-28T03:22:45.498Z,82.44
2019-01-28T03:23:44.941Z,82.55
2019-01-28T03:24:45.029Z,82.69
2019-01-28T03:25:45.001Z,82.63
2019-01-28T03:26:45.173Z,82.67
2019-01-28T03:27:45.318Z,82.77
2019-01-28T03:28:45.123Z,82.73
2019-01-28T03:29:45.292Z,82.86
2019-01-28T03:30:44.917Z,83.03
2019-01-28T03:31:44.987Z,83.07
2019-01-28T03:32:44.982Z,83.17
2019-01-28T03:33:45.218Z,83.17
2019-01-28T03:34:45.154Z,83.25
2019-01-28T03:35:44.900Z,83.24
2019-01-28T03:36:45.160Z,83.18
2019-01-28T03:37:44.891Z,83.28
2019-01-28T03:38:44.995Z,83.43
2019-01-28T03:39:45.058Z,83.47
2019-01-28T03:40:44.911Z,83.69
2019-01-28T03:41:45.098Z,83.65
2019-01-28T03:42:45.410Z,83.59
2019-01-28T03:43:45.210Z,83.67
2019-01-28T03:44:45.301Z,83.76
2019-01-28T03:45:45.111Z,83.75
2019-01-28T03:46:45.216Z,83.84
2019-01-28T03:47:45.153Z,84
2019-01-28T03:48:44.878Z,83.99
2019-01-28T03:49:45.006Z,84.13
2019-01-28T03:50:45.174Z,84.18
2019-01-28T03:51:44.992Z,84.33
2019-01-28T03:52:45.163Z,84.62
2019-01-28T03:53:44.898Z,84.64
2019-01-28T03:54:45.066Z,84.78
2019-01-28T03:55:45.384Z,84.88
2019-01-28T03:56:45.064Z,84.86
2019-01-28T03:57:45.488Z,84.94
2019-01-28T03:58:45.060Z,85.09
2019-01-28T03:59:45.210Z,85.28
2019-01-28T04:00:44.837Z,85.27
2019-01-28T04:01:45.106Z,85.45
2019-01-28T04:02:44.941Z,85.42
2019-01-28T04:03:45.449Z,85.56
2019-01-28T04:04:45.158Z,85.59
2019-01-28T04:05:45.129Z,85.78
2019-01-28T04:06:45.141Z,85.86
2019-01-28T04:07:44.970Z,85.8
2019-01-28T04:08:45.970Z,85.81
2019-01-28T04:09:45.072Z,85.84
2019-01-28T04:10:44.925Z,85.93
2019-01-28T04:11:45.075Z,85.85
2019-01-28T04:12:46.631Z,86
2019-01-28T04:13:45.091Z,86
2019-01-28T04:14:45.314Z,86.07
2019-01-28T04:15:44.997Z,86.17
2019-01-28T04:16:44.841Z,86.27
2019-01-28T04:17:44.814Z,86.37
2019-01-28T04:18:46.636Z,86.34
2019-01-28T04:19:45.156Z,86.28
2019-01-28T04:20:44.942Z,86.02
2019-01-28T04:21:44.814Z,86.23
2019-01-28T04:22:45.056Z,86.34
2019-01-28T04:23:44.885Z,86.45
2019-01-28T04:24:44.811Z,86.49
2019-01-28T04:25:44.867Z,86.4
2019-01-28T04:26:44.908Z,86.4
2019-01-28T04:27:44.825Z,86.49
2019-01-28T04:28:44.823Z,86.5
2019-01-28T04:29:44.949Z,86.48
2019-01-28T04:30:45.103Z,86.47
2019-01-28T04:31:44.876Z,86.56
2019-01-28T04:32:44.850Z,86.51
2019-01-28T04:33:44.831Z,86.56
2019-01-28T04:34:44.815Z,86.57
2019-01-28T04:35:45.558Z,86.51
2019-01-28T04:36:45.143Z,86.54
2019-01-28T04:37:44.791Z,86.52
2019-01-28T04:38:44.927Z,86.49
2019-01-28T04:39:44.820Z,86.49
2019-01-28T04:40:45.398Z,86.57
2019-01-28T04:41:44.784Z,86.51
2019-01-28T04:42:45.025Z,86.44
2019-01-28T04:43:45.103Z,86.52
2019-01-28T04:44:45.111Z,86.69
2019-01-28T04:45:45.968Z,86.71
2019-01-28T04:46:45.114Z,86.65
2019-01-28T04:47:45.019Z,86.72
2019-01-28T04:48:58.746Z,86.76
2019-01-28T04:49:45.046Z,86.79
2019-01-28T04:50:45.041Z,86.86
2019-01-28T04:51:45.034Z,86.9
2019-01-28T04:52:44.782Z,86.88
2019-01-28T04:53:44.754Z,86.84
2019-01-28T04:54:44.925Z,86.84
2019-01-28T04:55:44.872Z,86.82
2019-01-28T04:56:44.848Z,86.98
2019-01-28T04:57:44.807Z,86.99
2019-01-28T04:58:45.392Z,87.04
2019-01-28T04:59:45.022Z,87.12
2019-01-28T05:00:44.720Z,87.02
2019-01-28T05:01:45.006Z,86.97
2019-01-28T05:02:45.032Z,86.97
2019-01-28T05:03:44.744Z,86.99
2019-01-28T05:04:44.833Z,87.03
2019-01-28T05:05:44.846Z,86.86
2019-01-28T05:06:45.202Z,86.91
2019-01-28T05:07:44.749Z,86.94
2019-01-28T05:08:45.163Z,86.77
2019-01-28T05:09:44.928Z,86.68
2019-01-28T05:10:44.752Z,86.84
2019-01-28T05:11:44.758Z,86.67
2019-01-28T05:12:45.107Z,86.78
2019-01-28T05:13:45.003Z,86.88
2019-01-28T05:14:45.110Z,86.83
2019-01-28T05:15:45.758Z,86.87
2019-01-28T05:16:44.845Z,86.88
2019-01-28T05:17:45.429Z,87.01
2019-01-28T05:18:45.124Z,86.9
2019-01-28T05:19:44.748Z,87.02
2019-01-28T05:20:44.813Z,87
2019-01-28T05:21:44.753Z,87.07
2019-01-28T05:22:44.792Z,87.22
2019-01-28T05:23:44.961Z,87.26
2019-01-28T05:24:44.740Z,87.24
2019-01-28T05:25:44.716Z,87.2
2019-01-28T05:26:44.827Z,87.16
2019-01-28T05:27:44.824Z,87.41
2019-01-28T05:28:44.761Z,87.34
2019-01-28T05:29:44.892Z,87.37
2019-01-28T05:30:45.133Z,87.43
2019-01-28T05:31:45.038Z,87.37
2019-01-28T05:32:44.767Z,87.37
2019-01-28T05:33:44.774Z,87.38
2019-01-28T05:34:45.061Z,87.43
2019-01-28T05:35:44.802Z,87.34
2019-01-28T05:36:44.735Z,87.39
2019-01-28T05:37:44.754Z,87.48
2019-01-28T05:38:44.959Z,87.5
2019-01-28T05:39:44.997Z,87.41
2019-01-28T05:40:44.736Z,87.52
2019-01-28T05:41:44.771Z,87.51
2019-01-28T05:42:44.658Z,87.6
2019-01-28T05:43:44.691Z,87.61
2019-01-28T05:44:45.047Z,87.52
2019-01-28T05:45:44.825Z,87.6
2019-01-28T05:46:46.538Z,87.62
2019-01-28T05:47:44.942Z,87.73
2019-01-28T05:48:44.739Z,87.64
2019-01-28T05:49:44.896Z,87.74
2019-01-28T05:50:45.303Z,87.8
2019-01-28T05:51:46.556Z,87.73
2019-01-28T05:52:45.081Z,87.75
2019-01-28T05:53:44.960Z,87.86
2019-01-28T05:54:44.968Z,87.89
2019-01-28T05:55:45.091Z,87.9
2019-01-28T05:56:44.656Z,87.81
2019-01-28T05:57:44.685Z,87.7
2019-01-28T05:58:44.782Z,87.64
2019-01-28T05:59:44.647Z,87.75
2019-01-28T06:00:45.108Z,87.68
2019-01-28T06:01:44.740Z,87.73
2019-01-28T06:02:44.811Z,87.78
2019-01-28T06:03:44.651Z,87.64
2019-01-28T06:04:44.709Z,87.55
2019-01-28T06:05:44.678Z,87.52
2019-01-28T06:06:44.704Z,87.56
2019-01-28T06:07:44.661Z,87.56
2019-01-28T06:08:44.683Z,87.63
2019-01-28T06:09:44.720Z,87.67
2019-01-28T06:10:44.709Z,87.73
2019-01-28T06:11:44.650Z,87.53
2019-01-28T06:12:44.731Z,87.63
2019-01-28T06:13:44.663Z,87.57
2019-01-28T06:14:44.627Z,87.6
2019-01-28T06:15:44.627Z,87.59
2019-01-28T06:16:44.635Z,87.61
2019-01-28T06:17:44.639Z,87.62
2019-01-28T06:18:44.621Z,87.6
2019-01-28T06:19:44.647Z,87.66
2019-01-28T06:20:44.617Z,87.53
2019-01-28T06:21:45.081Z,87.62
2019-01-28T06:22:44.660Z,87.54
2019-01-28T06:23:44.666Z,87.49
2019-01-28T06:24:44.840Z,87.5
2019-01-28T06:25:44.740Z,87.48
2019-01-28T06:26:44.907Z,87.57
2019-01-28T06:27:44.650Z,87.66
2019-01-28T06:28:44.624Z,87.73
2019-01-28T06:29:46.434Z,87.68
2019-01-28T06:30:44.801Z,87.71
2019-01-28T06:31:44.647Z,87.51
2019-01-28T06:32:44.713Z,87.34
2019-01-28T06:33:44.953Z,87.35
2019-01-28T06:34:44.938Z,87.37
2019-01-28T06:35:45.576Z,87.32
2019-01-28T06:36:45.184Z,87.24
2019-01-28T06:37:44.616Z,87.41
2019-01-28T06:38:44.626Z,87.28
2019-01-28T06:39:44.600Z,87.36
2019-01-28T06:40:45.190Z,87.2
2019-01-28T06:41:45.299Z,87.35
2019-01-28T06:42:44.595Z,87.52
2019-01-28T06:43:44.546Z,87.54
2019-01-28T06:44:44.731Z,87.47
2019-01-28T06:45:44.611Z,87.46
2019-01-28T06:46:44.735Z,87.58
2019-01-28T06:47:47.421Z,87.53
2019-01-28T06:48:45.238Z,87.51
2019-01-28T06:49:44.703Z,87.57
2019-01-28T06:50:44.597Z,87.51
2019-01-28T06:51:44.614Z,87.48
2019-01-28T06:52:44.677Z,87.5
2019-01-28T06:53:45.269Z,87.52
2019-01-28T06:54:44.603Z,87.38
2019-01-28T06:55:44.693Z,87.39
2019-01-28T06:56:45.086Z,87.44
2019-01-28T06:57:44.582Z,87.44
2019-01-28T06:58:44.861Z,87.5
2019-01-28T06:59:44.802Z,87.57
2019-01-28T07:00:44.804Z,87.42
2019-01-28T07:01:44.632Z,87.39
2019-01-28T07:02:45.058Z,87.38
2019-01-28T07:03:44.611Z,87.3
2019-01-28T07:04:44.829Z,87.25
2019-01-28T07:05:44.704Z,87.03
2019-01-28T07:06:44.745Z,87.06
2019-01-28T07:07:44.601Z,87.13
2019-01-28T07:08:44.681Z,87.1
2019-01-28T07:09:44.643Z,87.29
2019-01-28T07:10:44.590Z,87.46
2019-01-28T07:11:44.539Z,87.43
2019-01-28T07:12:44.758Z,87.32
2019-01-28T07:13:44.562Z,87.4
2019-01-28T07:14:44.621Z,87.38
2019-01-28T07:15:46.354Z,87.41
2019-01-28T07:16:44.815Z,87.48
2019-01-28T07:17:44.688Z,87.56
2019-01-28T07:18:44.606Z,87.5
2019-01-28T07:19:44.566Z,87.52
2019-01-28T07:20:44.569Z,87.51
2019-01-28T07:21:44.519Z,87.68
2019-01-28T07:22:44.570Z,87.65
2019-01-28T07:23:44.615Z,87.77
2019-01-28T07:24:44.779Z,87.82
2019-01-28T07:25:44.679Z,87.8
2019-01-28T07:26:44.538Z,87.88
2019-01-28T07:27:44.657Z,87.98
2019-01-28T07:28:44.521Z,88.02
2019-01-28T07:29:44.495Z,87.98
2019-01-28T07:30:45.100Z,88.1
2019-01-28T07:31:44.625Z,88.13
2019-01-28T07:32:44.548Z,88.21
2019-01-28T07:33:44.521Z,88.18
2019-01-28T07:34:44.758Z,88.21
2019-01-28T07:35:45.236Z,88.13
2019-01-28T07:36:44.510Z,88.14
2019-01-28T07:37:44.627Z,88.31
2019-01-28T07:38:44.757Z,88.09
2019-01-28T07:39:44.555Z,88.09
2019-01-28T07:40:44.512Z,88.17
2019-01-28T07:41:44.586Z,88.19
2019-01-28T07:42:44.559Z,88.32
2019-01-28T07:43:44.579Z,88.4
2019-01-28T07:44:44.565Z,88.45
2019-01-28T07:45:45.988Z,88.33
2019-01-28T07:46:44.614Z,88.52
2019-01-28T07:47:44.518Z,88.4
2019-01-28T07:48:44.577Z,88.45
2019-01-28T07:49:44.523Z,88.48
2019-01-28T07:50:44.503Z,88.44
2019-01-28T07:51:44.523Z,88.38
2019-01-28T07:52:44.477Z,88.45
2019-01-28T07:53:44.546Z,88.55
2019-01-28T07:54:44.585Z,88.39
2019-01-28T07:55:44.809Z,88.32
2019-01-28T07:56:44.483Z,88.38
2019-01-28T07:57:44.510Z,88.36
2019-01-28T07:58:44.583Z,88.43
2019-01-28T07:59:44.465Z,88.38
2019-01-28T08:00:45.005Z,88.46
2019-01-28T08:01:44.710Z,88.49
2019-01-28T08:02:45.391Z,88.52
2019-01-28T08:03:44.480Z,88.43
2019-01-28T08:04:45.052Z,88.42
2019-01-28T08:05:44.503Z,88.46
2019-01-28T08:06:45.045Z,88.49
2019-01-28T08:07:44.604Z,88.48
2019-01-28T08:08:44.684Z,88.45
2019-01-28T08:09:44.780Z,88.36
2019-01-28T08:10:44.518Z,88.17
2019-01-28T08:11:44.794Z,88.21
2019-01-28T08:12:45.198Z,88.2
2019-01-28T08:13:44.432Z,88.04
2019-01-28T08:14:44.703Z,87.77
2019-01-28T08:15:44.480Z,87.74
2019-01-28T08:16:44.914Z,87.77
2019-01-28T08:17:44.497Z,87.41
2019-01-28T08:18:44.596Z,87.54
2019-01-28T08:19:44.594Z,87.67
2019-01-28T08:20:45.144Z,87.58
2019-01-28T08:21:44.858Z,87.32
2019-01-28T08:22:44.521Z,87.4
2019-01-28T08:23:44.428Z,87.41
2019-01-28T08:24:44.466Z,87.25
2019-01-28T08:25:45.329Z,87.36
2019-01-28T08:26:44.804Z,87.55
2019-01-28T08:27:44.575Z,87.58
2019-01-28T08:28:44.444Z,87.68
2019-01-28T08:29:44.408Z,87.6
2019-01-28T08:30:44.472Z,87.53
2019-01-28T08:31:44.491Z,87.53
2019-01-28T08:32:44.728Z,87.64
2019-01-28T08:33:44.419Z,87.57
2019-01-28T08:34:44.754Z,87.38
2019-01-28T08:35:44.827Z,87.27
2019-01-28T08:36:44.564Z,87.12
2019-01-28T08:37:44.455Z,87.19
2019-01-28T08:38:44.465Z,87.28
2019-01-28T08:39:44.896Z,87.11
2019-01-28T08:40:44.728Z,86.83
2019-01-28T08:41:44.759Z,86.78
2019-01-28T08:42:44.541Z,86.78
2019-01-28T08:43:45.598Z,86.8
2019-01-28T08:44:46.217Z,86.98
2019-01-28T08:45:44.513Z,86.79
2019-01-28T08:46:44.462Z,86.89
2019-01-28T08:47:44.416Z,86.83
2019-01-28T08:48:45.325Z,86.71
2019-01-28T08:49:44.688Z,86.61
2019-01-28T08:50:44.381Z,86.76
2019-01-28T08:51:44.846Z,86.72
2019-01-28T08:52:46.230Z,86.73
2019-01-28T08:53:44.453Z,86.69
2019-01-28T08:54:44.391Z,86.59
2019-01-28T08:55:45.099Z,86.61
2019-01-28T08:56:45.309Z,86.46
2019-01-28T08:57:44.674Z,86.45
2019-01-28T08:58:44.683Z,86.41
2019-01-28T08:59:44.768Z,86.31
2019-01-28T09:00:44.527Z,86.22
2019-01-28T09:01:45.107Z,86.13
2019-01-28T09:02:44.932Z,86.31
2019-01-28T09:03:45.116Z,86.39
2019-01-28T09:04:44.628Z,86.14
2019-01-28T09:05:44.410Z,86.16
2019-01-28T09:06:44.482Z,86.24
2019-01-28T09:07:44.394Z,86.29
2019-01-28T09:08:44.470Z,86.4
2019-01-28T09:09:44.479Z,86.37
2019-01-28T09:10:44.655Z,85.8
2019-01-28T09:11:44.383Z,85.65
2019-01-28T09:12:44.446Z,85.81
2019-01-28T09:13:44.353Z,85.94
2019-01-28T09:14:44.410Z,86.03
2019-01-28T09:15:44.818Z,85.86
2019-01-28T09:16:44.466Z,85.77
2019-01-28T09:17:45.254Z,85.83
2019-01-28T09:18:44.611Z,85.59
2019-01-28T09:19:44.620Z,85.58
2019-01-28T09:20:44.443Z,85.6
2019-01-28T09:21:44.530Z,85.61
2019-01-28T09:22:44.384Z,85.66
2019-01-28T09:23:44.528Z,85.71
2019-01-28T09:24:44.496Z,85.79
2019-01-28T09:25:44.455Z,85.82
2019-01-28T09:26:44.550Z,85.66
2019-01-28T09:27:44.335Z,85.49
2019-01-28T09:28:44.527Z,85.42
2019-01-28T09:29:44.356Z,85.2
2019-01-28T09:30:46.436Z,85.26
2019-01-28T09:31:44.463Z,85.21
2019-01-28T09:32:44.435Z,85.3
2019-01-28T09:33:44.310Z,85.47
2019-01-28T09:34:44.455Z,85.55
2019-01-28T09:35:44.476Z,85.29
2019-01-28T09:36:44.424Z,85.16
2019-01-28T09:37:44.551Z,85.1
2019-01-28T09:38:44.421Z,85.25
2019-01-28T09:39:44.542Z,84.97
2019-01-28T09:40:44.561Z,84.63
2019-01-28T09:41:44.558Z,84.71
2019-01-28T09:42:44.435Z,84.88
2019-01-28T09:43:44.566Z,84.99
2019-01-28T09:44:44.344Z,85.17
2019-01-28T09:45:47.754Z,85.07
2019-01-28T09:46:44.587Z,84.89
2019-01-28T09:47:46.154Z,85.15
2019-01-28T09:48:44.603Z,85.07
2019-01-28T09:49:44.612Z,85.01
2019-01-28T09:50:44.376Z,84.98
2019-01-28T09:51:44.494Z,84.72
2019-01-28T09:52:44.298Z,84.78
2019-01-28T09:53:44.408Z,84.73
2019-01-28T09:54:44.464Z,84.61
2019-01-28T09:55:44.372Z,84.58
2019-01-28T09:56:44.365Z,84.75
2019-01-28T09:57:44.310Z,84.69
2019-01-28T09:58:44.504Z,85.04
2019-01-28T09:59:44.421Z,85.05
2019-01-28T10:00:44.296Z,85.19
2019-01-28T10:01:44.355Z,85.09
2019-01-28T10:02:44.498Z,84.99
2019-01-28T10:03:44.692Z,84.7
2019-01-28T10:04:44.399Z,84.61
2019-01-28T10:05:44.819Z,84.57
2019-01-28T10:06:44.628Z,84.69
2019-01-28T10:07:44.267Z,84.6
2019-01-28T10:08:44.388Z,84.66
2019-01-28T10:09:44.274Z,84.71
2019-01-28T10:10:44.273Z,84.72
2019-01-28T10:11:44.354Z,84.92
2019-01-28T10:12:44.266Z,84.94
2019-01-28T10:13:44.590Z,84.9
2019-01-28T10:14:44.459Z,84.93
2019-01-28T10:15:44.306Z,84.83
2019-01-28T10:16:44.297Z,84.58
2019-01-28T10:17:44.507Z,84.71
2019-01-28T10:18:44.606Z,84.75
2019-01-28T10:19:44.522Z,84.69
2019-01-28T10:20:45.090Z,84.78
2019-01-28T10:21:44.381Z,84.67
2019-01-28T10:22:44.637Z,84.66
2019-01-28T10:23:44.276Z,84.61
2019-01-28T10:24:44.280Z,84.38
2019-01-28T10:25:44.238Z,84.27
2019-01-28T10:26:44.250Z,84.49
2019-01-28T10:27:44.243Z,84.55
2019-01-28T10:28:44.276Z,84.58
2019-01-28T10:29:44.411Z,84.66
2019-01-28T10:30:44.261Z,84.78
2019-01-28T10:31:44.482Z,84.72
2019-01-28T10:32:44.360Z,84.79
2019-01-28T10:33:44.267Z,84.85
2019-01-28T10:34:44.335Z,84.84
2019-01-28T10:35:44.241Z,84.84
2019-01-28T10:36:44.251Z,84.82
2019-01-28T10:37:44.456Z,84.69
2019-01-28T10:38:44.301Z,84.57
2019-01-28T10:39:44.301Z,84.68
2019-01-28T10:40:44.530Z,84.99
2019-01-28T10:41:44.271Z,85.19
2019-01-28T10:42:44.260Z,85.12
2019-01-28T10:43:44.586Z,85.21
2019-01-28T10:44:44.733Z,85.31
2019-01-28T10:45:44.526Z,85.37
2019-01-28T10:46:44.533Z,85.18
2019-01-28T10:47:44.433Z,85.08
2019-01-28T10:48:50.100Z,85.02
2019-01-28T10:49:44.303Z,84.91
2019-01-28T10:50:44.605Z,85.11
2019-01-28T10:51:44.254Z,85.27
2019-01-28T10:52:44.638Z,84.97
2019-01-28T10:53:44.514Z,85.26
2019-01-28T10:54:44.441Z,85.39
2019-01-28T10:55:44.704Z,85.46
2019-01-28T10:56:44.549Z,85.49
2019-01-28T10:57:44.612Z,85.64
2019-01-28T10:58:44.497Z,85.42
2019-01-28T10:59:45.369Z,85.37
2019-01-28T11:00:44.372Z,85.47
2019-01-28T11:01:45.922Z,85.48
2019-01-28T11:02:44.244Z,85.52
2019-01-28T11:03:44.477Z,85.58
2019-01-28T11:04:44.979Z,85.74
2019-01-28T11:05:44.353Z,85.69
2019-01-28T11:06:44.224Z,85.75
2019-01-28T11:07:44.399Z,85.78
2019-01-28T11:08:54.617Z,85.78
2019-01-28T11:09:46.352Z,85.84
2019-01-28T11:10:45.568Z,86.03
2019-01-28T11:14:44.654Z,86.13
2019-01-28T11:15:44.864Z,86
2019-01-28T11:16:44.327Z,86.14
2019-01-28T11:17:45.202Z,85.99
2019-01-28T11:18:49.132Z,86.1
2019-01-28T11:19:46.056Z,86.1
2019-01-28T11:20:45.172Z,86.14
2019-01-28T11:21:44.554Z,86.05
2019-01-28T11:22:44.461Z,85.94
2019-01-28T11:23:48.502Z,85.75
2019-01-28T11:24:44.828Z,85.98
2019-01-28T11:25:44.284Z,86.23
2019-01-28T11:26:45.006Z,86.38
2019-01-28T11:27:45.915Z,86.62
2019-01-28T11:28:46.267Z,86.28
2019-01-28T11:29:44.735Z,86.27
2019-01-28T11:30:44.719Z,86.28
2019-01-28T11:31:47.379Z,86.25
2019-01-28T11:32:45.340Z,86.52
2019-01-28T11:33:45.590Z,86.43
2019-01-28T11:34:44.621Z,86.4
2019-01-28T11:35:45.482Z,86.35
2019-01-28T11:36:44.574Z,86
2019-01-28T11:37:44.440Z,86.09
2019-01-28T11:38:44.578Z,86.31
2019-01-28T11:39:45.369Z,86.37
2019-01-28T11:40:44.186Z,86.12
2019-01-28T11:41:44.858Z,86.28
2019-01-28T11:42:44.555Z,86.18
2019-01-28T11:43:44.600Z,86.29
2019-01-28T11:44:45.058Z,86.08
2019-01-28T11:45:46.293Z,86.18
2019-01-28T11:46:46.185Z,86.49
2019-01-28T11:47:44.531Z,86.19
2019-01-28T11:48:45.809Z,86.37
2019-01-28T11:49:45.378Z,86.34
2019-01-28T11:50:44.203Z,86.55
2019-01-28T11:51:44.145Z,86.1
2019-01-28T11:53:44.149Z,86.16
2019-01-28T11:54:44.571Z,86.36
2019-01-28T11:55:44.241Z,86.51
2019-01-28T11:56:44.257Z,86.47
2019-01-28T11:57:44.294Z,86.41
2019-01-28T11:58:44.205Z,86.47
2019-01-28T11:59:44.269Z,86.67
2019-01-28T12:00:44.086Z,86.62
2019-01-28T12:01:44.301Z,86.42
2019-01-28T12:02:44.429Z,86.25
2019-01-28T12:03:45.975Z,86.19
2019-01-28T12:04:45.591Z,86.45
2019-01-28T12:05:44.134Z,86.43
2019-01-28T12:06:45.515Z,86.42
2019-01-28T12:07:44.134Z,86.28
2019-01-28T12:08:44.087Z,86.1
2019-01-28T12:09:44.089Z,86.05
2019-01-28T12:10:44.131Z,85.92
2019-01-28T12:11:44.167Z,85.84
2019-01-28T12:12:44.145Z,86.05
2019-01-28T12:13:44.264Z,86.06
2019-01-28T12:14:44.102Z,85.98
2019-01-28T12:15:44.115Z,85.88
2019-01-28T12:16:44.117Z,85.91
2019-01-28T12:17:44.124Z,86
2019-01-28T12:18:44.249Z,85.99
2019-01-28T12:19:44.523Z,86.02
2019-01-28T12:20:54.126Z,85.76
2019-01-28T12:21:44.137Z,86.04
2019-01-28T12:22:44.340Z,86.2
2019-01-28T12:23:45.037Z,86.13
2019-01-28T12:24:44.108Z,86.3
2019-01-28T12:25:44.077Z,86.14
2019-01-28T12:26:44.263Z,86.19
2019-01-28T12:27:44.320Z,86
2019-01-28T12:28:44.190Z,86.07
2019-01-28T12:29:44.146Z,86.22
2019-01-28T12:30:44.209Z,86.34
2019-01-28T12:31:44.311Z,86.46
2019-01-28T12:32:44.424Z,86.64
2019-01-28T12:33:44.091Z,86.48
2019-01-28T12:34:44.085Z,86.26
2019-01-28T12:35:44.334Z,86.09
2019-01-28T12:36:44.068Z,86.21
2019-01-28T12:37:44.614Z,86.43
2019-01-28T12:38:44.147Z,86.6
2019-01-28T12:39:45.384Z,86.88
2019-01-28T12:40:44.074Z,86.96
2019-01-28T12:41:44.022Z,87.07
2019-01-28T12:42:44.064Z,87.31
2019-01-28T12:43:44.082Z,87.15
2019-01-28T12:44:44.739Z,87
2019-01-28T12:45:44.080Z,87.23
2019-01-28T12:46:44.061Z,87.2
2019-01-28T12:48:44.130Z,87.22
2019-01-28T12:49:44.957Z,87.46
2019-01-28T12:50:45.097Z,87.58
2019-01-28T12:51:44.154Z,87.73
2019-01-28T12:52:44.628Z,87.76
2019-01-28T12:53:44.912Z,87.76
2019-01-28T12:54:44.201Z,87.85
2019-01-28T12:55:47.288Z,87.79
2019-01-28T12:56:49.951Z,87.84
2019-01-28T12:57:44.009Z,87.9
2019-01-28T12:58:44.742Z,87.69
2019-01-28T12:59:44.001Z,87.73
2019-01-28T13:00:43.998Z,87.75
2019-01-28T13:01:50.259Z,87.88
2019-01-28T13:02:44.103Z,88.05
2019-01-28T13:03:44.578Z,87.82
2019-01-28T13:04:45.457Z,87.7
2019-01-28T13:05:52.955Z,87.6
2019-01-28T13:06:44.319Z,87.57